sensor_id;sensor_type;location;lat;lon;timestamp;temperature;humidity
44121;DHT22;29783;52.504;13.478;2023-03-15T00:00:29;2.10;80.80
44121;DHT22;29783;52.504;13.478;2023-03-15T00:02:55;2.10;80.50
44121;DHT22;29783;52.504;13.478;2023-03-15T00:05:21;2.10;80.70
44121;DHT22;29783;52.504;13.478;2023-03-15T00:07:46;2.10;80.80
44121;DHT22;29783;52.504;13.478;2023-03-15T00:10:12;2.00;80.80
44121;DHT22;29783;52.504;13.478;2023-03-15T00:12:39;2.10;80.40
44121;DHT22;29783;52.504;13.478;2023-03-15T00:15:07;2.10;80.70
44121;DHT22;29783;52.504;13.478;2023-03-15T00:17:33;2.00;80.90
44121;DHT22;29783;52.504;13.478;2023-03-15T00:20:00;2.00;81.10
44121;DHT22;29783;52.504;13.478;2023-03-15T00:22:25;1.90;81.00
44121;DHT22;29783;52.504;13.478;2023-03-15T00:24:51;2.00;80.70
44121;DHT22;29783;52.504;13.478;2023-03-15T00:27:17;2.00;80.40
44121;DHT22;29783;52.504;13.478;2023-03-15T00:29:43;2.00;80.60
44121;DHT22;29783;52.504;13.478;2023-03-15T00:32:09;2.00;80.60
44121;DHT22;29783;52.504;13.478;2023-03-15T00:34:34;2.10;80.20
44121;DHT22;29783;52.504;13.478;2023-03-15T00:37:00;2.10;80.30
44121;DHT22;29783;52.504;13.478;2023-03-15T00:39:26;2.00;80.50
44121;DHT22;29783;52.504;13.478;2023-03-15T00:41:52;2.00;80.90
44121;DHT22;29783;52.504;13.478;2023-03-15T00:44:24;2.10;80.50
44121;DHT22;29783;52.504;13.478;2023-03-15T00:46:51;2.10;80.10
44121;DHT22;29783;52.504;13.478;2023-03-15T00:49:17;2.00;80.20
44121;DHT22;29783;52.504;13.478;2023-03-15T00:51:42;2.00;79.90
44121;DHT22;29783;52.504;13.478;2023-03-15T00:54:09;2.10;80.10
44121;DHT22;29783;52.504;13.478;2023-03-15T00:56:38;2.10;79.70
44121;DHT22;29783;52.504;13.478;2023-03-15T00:59:04;2.00;79.90
44121;DHT22;29783;52.504;13.478;2023-03-15T01:01:30;2.00;80.30
44121;DHT22;29783;52.504;13.478;2023-03-15T01:03:56;2.00;80.40
44121;DHT22;29783;52.504;13.478;2023-03-15T01:06:24;1.90;80.40
44121;DHT22;29783;52.504;13.478;2023-03-15T01:08:51;1.90;80.30
44121;DHT22;29783;52.504;13.478;2023-03-15T01:11:22;1.90;80.40
44121;DHT22;29783;52.504;13.478;2023-03-15T01:13:50;1.90;80.70
44121;DHT22;29783;52.504;13.478;2023-03-15T01:16:16;1.90;80.70
44121;DHT22;29783;52.504;13.478;2023-03-15T01:18:43;1.90;80.50
44121;DHT22;29783;52.504;13.478;2023-03-15T01:21:10;1.80;80.80
44121;DHT22;29783;52.504;13.478;2023-03-15T01:23:36;2.00;80.30
44121;DHT22;29783;52.504;13.478;2023-03-15T01:26:04;2.00;80.40
44121;DHT22;29783;52.504;13.478;2023-03-15T01:28:30;1.90;80.50
44121;DHT22;29783;52.504;13.478;2023-03-15T01:30:55;1.90;80.50
44121;DHT22;29783;52.504;13.478;2023-03-15T01:33:21;1.80;80.90
44121;DHT22;29783;52.504;13.478;2023-03-15T01:35:48;1.80;80.70
44121;DHT22;29783;52.504;13.478;2023-03-15T01:38:22;1.90;80.40
44121;DHT22;29783;52.504;13.478;2023-03-15T01:40:47;1.80;80.50
44121;DHT22;29783;52.504;13.478;2023-03-15T01:43:19;1.80;80.50
44121;DHT22;29783;52.504;13.478;2023-03-15T01:51:49;1.70;81.40
44121;DHT22;29783;52.504;13.478;2023-03-15T01:56:43;1.60;81.70
44121;DHT22;29783;52.504;13.478;2023-03-15T01:59:15;1.60;81.70
44121;DHT22;29783;52.504;13.478;2023-03-15T02:01:43;1.50;82.00
44121;DHT22;29783;52.504;13.478;2023-03-15T02:04:12;1.40;82.30
44121;DHT22;29783;52.504;13.478;2023-03-15T02:06:41;1.30;82.70
44121;DHT22;29783;52.504;13.478;2023-03-15T02:09:13;1.40;82.80
44121;DHT22;29783;52.504;13.478;2023-03-15T02:11:41;1.50;82.10
44121;DHT22;29783;52.504;13.478;2023-03-15T02:14:09;1.50;82.10
44121;DHT22;29783;52.504;13.478;2023-03-15T02:16:35;1.30;82.90
44121;DHT22;29783;52.504;13.478;2023-03-15T02:19:04;1.30;83.20
44121;DHT22;29783;52.504;13.478;2023-03-15T02:24:15;1.30;83.20
44121;DHT22;29783;52.504;13.478;2023-03-15T02:26:44;1.30;83.60
44121;DHT22;29783;52.504;13.478;2023-03-15T02:29:12;1.10;84.20
44121;DHT22;29783;52.504;13.478;2023-03-15T02:31:38;1.10;84.30
44121;DHT22;29783;52.504;13.478;2023-03-15T02:34:05;1.10;84.40
44121;DHT22;29783;52.504;13.478;2023-03-15T02:36:32;1.00;84.90
44121;DHT22;29783;52.504;13.478;2023-03-15T02:38:59;1.00;85.00
44121;DHT22;29783;52.504;13.478;2023-03-15T02:41:29;0.90;85.10
44121;DHT22;29783;52.504;13.478;2023-03-15T02:44:02;0.80;85.60
44121;DHT22;29783;52.504;13.478;2023-03-15T02:46:29;0.70;86.20
44121;DHT22;29783;52.504;13.478;2023-03-15T02:48:55;0.80;86.10
44121;DHT22;29783;52.504;13.478;2023-03-15T02:51:23;0.80;86.00
44121;DHT22;29783;52.504;13.478;2023-03-15T02:53:49;0.80;85.80
44121;DHT22;29783;52.504;13.478;2023-03-15T02:56:15;0.80;85.70
44121;DHT22;29783;52.504;13.478;2023-03-15T02:58:41;0.80;85.70
44121;DHT22;29783;52.504;13.478;2023-03-15T03:01:14;0.80;85.80
44121;DHT22;29783;52.504;13.478;2023-03-15T03:03:42;0.90;85.70
44121;DHT22;29783;52.504;13.478;2023-03-15T03:06:09;0.80;85.90
44121;DHT22;29783;52.504;13.478;2023-03-15T03:08:35;0.80;86.00
44121;DHT22;29783;52.504;13.478;2023-03-15T03:11:01;0.80;85.60
44121;DHT22;29783;52.504;13.478;2023-03-15T03:13:28;0.80;86.10
44121;DHT22;29783;52.504;13.478;2023-03-15T03:15:54;0.70;86.10
44121;DHT22;29783;52.504;13.478;2023-03-15T03:18:32;0.60;86.70
44121;DHT22;29783;52.504;13.478;2023-03-15T03:21:02;0.60;86.80
44121;DHT22;29783;52.504;13.478;2023-03-15T03:23:30;0.50;87.00
44121;DHT22;29783;52.504;13.478;2023-03-15T03:25:56;0.50;87.20
44121;DHT22;29783;52.504;13.478;2023-03-15T03:28:24;0.60;87.40
44121;DHT22;29783;52.504;13.478;2023-03-15T03:30:51;0.60;87.30
44121;DHT22;29783;52.504;13.478;2023-03-15T03:33:17;0.60;87.40
44121;DHT22;29783;52.504;13.478;2023-03-15T03:35:43;0.70;87.70
44121;DHT22;29783;52.504;13.478;2023-03-15T03:38:10;0.80;87.50
44121;DHT22;29783;52.504;13.478;2023-03-15T03:40:39;1.00;86.80
44121;DHT22;29783;52.504;13.478;2023-03-15T03:43:06;1.10;86.60
44121;DHT22;29783;52.504;13.478;2023-03-15T03:45:33;1.30;85.50
44121;DHT22;29783;52.504;13.478;2023-03-15T03:47:59;1.30;85.00
44121;DHT22;29783;52.504;13.478;2023-03-15T03:50:25;1.40;84.60
44121;DHT22;29783;52.504;13.478;2023-03-15T03:52:51;1.40;84.60
44121;DHT22;29783;52.504;13.478;2023-03-15T03:55:17;1.50;84.80
44121;DHT22;29783;52.504;13.478;2023-03-15T03:57:42;1.50;84.60
44121;DHT22;29783;52.504;13.478;2023-03-15T04:00:11;1.40;84.80
44121;DHT22;29783;52.504;13.478;2023-03-15T04:02:39;1.40;84.70
44121;DHT22;29783;52.504;13.478;2023-03-15T04:05:08;1.20;84.80
44121;DHT22;29783;52.504;13.478;2023-03-15T04:07:34;1.10;85.30
44121;DHT22;29783;52.504;13.478;2023-03-15T04:10:00;1.00;85.40
44121;DHT22;29783;52.504;13.478;2023-03-15T04:12:27;0.90;85.60
44121;DHT22;29783;52.504;13.478;2023-03-15T04:14:52;0.80;86.20
44121;DHT22;29783;52.504;13.478;2023-03-15T04:17:18;0.70;86.50
44121;DHT22;29783;52.504;13.478;2023-03-15T04:19:44;0.70;86.60
44121;DHT22;29783;52.504;13.478;2023-03-15T04:22:12;0.60;87.00
44121;DHT22;29783;52.504;13.478;2023-03-15T04:24:40;0.70;87.10
44121;DHT22;29783;52.504;13.478;2023-03-15T04:27:06;0.50;86.70
44121;DHT22;29783;52.504;13.478;2023-03-15T04:29:32;0.40;87.30
44121;DHT22;29783;52.504;13.478;2023-03-15T04:31:57;0.40;87.70
44121;DHT22;29783;52.504;13.478;2023-03-15T04:34:29;0.30;87.60
44121;DHT22;29783;52.504;13.478;2023-03-15T04:36:56;0.20;87.90
44121;DHT22;29783;52.504;13.478;2023-03-15T04:39:22;0.20;88.40
44121;DHT22;29783;52.504;13.478;2023-03-15T04:41:49;0.20;88.60
44121;DHT22;29783;52.504;13.478;2023-03-15T04:44:15;0.20;88.60
44121;DHT22;29783;52.504;13.478;2023-03-15T04:46:44;0.20;88.70
44121;DHT22;29783;52.504;13.478;2023-03-15T04:49:10;0.30;89.10
44121;DHT22;29783;52.504;13.478;2023-03-15T04:51:36;0.30;88.70
44121;DHT22;29783;52.504;13.478;2023-03-15T04:54:02;0.30;88.30
44121;DHT22;29783;52.504;13.478;2023-03-15T04:56:28;0.30;88.40
44121;DHT22;29783;52.504;13.478;2023-03-15T04:58:54;0.20;88.70
44121;DHT22;29783;52.504;13.478;2023-03-15T05:01:26;0.30;88.60
44121;DHT22;29783;52.504;13.478;2023-03-15T05:03:52;0.30;88.40
44121;DHT22;29783;52.504;13.478;2023-03-15T05:06:18;0.30;88.50
44121;DHT22;29783;52.504;13.478;2023-03-15T05:08:44;0.30;88.60
44121;DHT22;29783;52.504;13.478;2023-03-15T05:11:11;0.20;88.80
44121;DHT22;29783;52.504;13.478;2023-03-15T05:13:37;0.30;88.40
44121;DHT22;29783;52.504;13.478;2023-03-15T05:16:03;0.20;88.30
44121;DHT22;29783;52.504;13.478;2023-03-15T05:18:29;0.20;88.50
44121;DHT22;29783;52.504;13.478;2023-03-15T05:20:54;0.10;88.90
44121;DHT22;29783;52.504;13.478;2023-03-15T05:23:21;0.20;89.10
44121;DHT22;29783;52.504;13.478;2023-03-15T05:25:52;0.10;89.10
44121;DHT22;29783;52.504;13.478;2023-03-15T05:28:20;0.30;88.90
44121;DHT22;29783;52.504;13.478;2023-03-15T05:30:46;0.40;88.30
44121;DHT22;29783;52.504;13.478;2023-03-15T05:33:12;0.30;88.10
44121;DHT22;29783;52.504;13.478;2023-03-15T05:35:38;0.40;87.80
44121;DHT22;29783;52.504;13.478;2023-03-15T05:41:15;0.50;88.00
44121;DHT22;29783;52.504;13.478;2023-03-15T05:43:42;0.70;87.80
44121;DHT22;29783;52.504;13.478;2023-03-15T05:46:08;0.80;87.20
44121;DHT22;29783;52.504;13.478;2023-03-15T05:48:37;0.90;86.70
44121;DHT22;29783;52.504;13.478;2023-03-15T05:51:03;1.00;86.10
44121;DHT22;29783;52.504;13.478;2023-03-15T05:53:28;1.00;86.10
44121;DHT22;29783;52.504;13.478;2023-03-15T05:55:54;1.10;86.00
44121;DHT22;29783;52.504;13.478;2023-03-15T05:58:26;1.30;85.60
44121;DHT22;29783;52.504;13.478;2023-03-15T06:01:10;1.30;84.60
44121;DHT22;29783;52.504;13.478;2023-03-15T06:03:36;1.40;84.50
44121;DHT22;29783;52.504;13.478;2023-03-15T06:06:02;1.40;84.20
44121;DHT22;29783;52.504;13.478;2023-03-15T06:08:29;1.40;84.10
44121;DHT22;29783;52.504;13.478;2023-03-15T06:10:55;1.40;83.60
44121;DHT22;29783;52.504;13.478;2023-03-15T06:13:21;1.40;83.40
44121;DHT22;29783;52.504;13.478;2023-03-15T06:15:47;1.40;83.50
44121;DHT22;29783;52.504;13.478;2023-03-15T06:18:13;1.50;83.50
44121;DHT22;29783;52.504;13.478;2023-03-15T06:20:40;1.60;82.90
44121;DHT22;29783;52.504;13.478;2023-03-15T06:23:06;1.60;83.00
44121;DHT22;29783;52.504;13.478;2023-03-15T06:25:31;1.80;82.80
44121;DHT22;29783;52.504;13.478;2023-03-15T06:27:57;1.90;82.20
44121;DHT22;29783;52.504;13.478;2023-03-15T06:30:24;2.00;81.80
44121;DHT22;29783;52.504;13.478;2023-03-15T06:32:50;2.10;81.50
44121;DHT22;29783;52.504;13.478;2023-03-15T06:35:16;2.20;81.50
44121;DHT22;29783;52.504;13.478;2023-03-15T06:37:42;2.20;80.70
44121;DHT22;29783;52.504;13.478;2023-03-15T06:40:08;2.30;80.60
44121;DHT22;29783;52.504;13.478;2023-03-15T06:42:36;2.30;80.20
44121;DHT22;29783;52.504;13.478;2023-03-15T06:45:02;2.30;80.60
44121;DHT22;29783;52.504;13.478;2023-03-15T06:47:29;2.30;81.30
44121;DHT22;29783;52.504;13.478;2023-03-15T06:49:55;2.20;82.40
44121;DHT22;29783;52.504;13.478;2023-03-15T06:52:21;2.00;84.00
44121;DHT22;29783;52.504;13.478;2023-03-15T06:54:47;1.90;85.10
44121;DHT22;29783;52.504;13.478;2023-03-15T06:57:12;2.00;85.40
44121;DHT22;29783;52.504;13.478;2023-03-15T06:59:38;2.00;85.40
44121;DHT22;29783;52.504;13.478;2023-03-15T07:02:04;2.10;85.60
44121;DHT22;29783;52.504;13.478;2023-03-15T07:04:30;2.20;85.20
44121;DHT22;29783;52.504;13.478;2023-03-15T07:06:55;2.30;85.00
44121;DHT22;29783;52.504;13.478;2023-03-15T07:09:21;2.40;84.50
44121;DHT22;29783;52.504;13.478;2023-03-15T07:11:47;2.50;83.80
44121;DHT22;29783;52.504;13.478;2023-03-15T07:14:13;2.60;83.20
44121;DHT22;29783;52.504;13.478;2023-03-15T07:16:38;2.50;82.90
44121;DHT22;29783;52.504;13.478;2023-03-15T07:19:04;2.50;82.70
44121;DHT22;29783;52.504;13.478;2023-03-15T07:21:30;2.60;82.90
44121;DHT22;29783;52.504;13.478;2023-03-15T07:23:56;2.90;82.40
44121;DHT22;29783;52.504;13.478;2023-03-15T07:26:21;3.20;81.10
44121;DHT22;29783;52.504;13.478;2023-03-15T07:28:47;3.40;80.00
44121;DHT22;29783;52.504;13.478;2023-03-15T07:31:13;3.60;80.00
44121;DHT22;29783;52.504;13.478;2023-03-15T07:33:39;3.70;78.80
44121;DHT22;29783;52.504;13.478;2023-03-15T07:36:06;3.80;77.60
44121;DHT22;29783;52.504;13.478;2023-03-15T07:38:33;3.80;77.80
44121;DHT22;29783;52.504;13.478;2023-03-15T07:41:04;3.80;78.40
44121;DHT22;29783;52.504;13.478;2023-03-15T07:43:29;3.80;77.70
44121;DHT22;29783;52.504;13.478;2023-03-15T07:45:55;3.80;77.40
44121;DHT22;29783;52.504;13.478;2023-03-15T07:48:21;3.70;77.80
44121;DHT22;29783;52.504;13.478;2023-03-15T07:50:47;3.50;78.80
44121;DHT22;29783;52.504;13.478;2023-03-15T07:53:13;3.40;78.40
44121;DHT22;29783;52.504;13.478;2023-03-15T07:55:38;3.50;78.00
44121;DHT22;29783;52.504;13.478;2023-03-15T07:58:04;3.60;78.10
44121;DHT22;29783;52.504;13.478;2023-03-15T08:00:30;3.70;77.40
44121;DHT22;29783;52.504;13.478;2023-03-15T08:02:57;3.70;77.70
44121;DHT22;29783;52.504;13.478;2023-03-15T08:05:23;3.60;77.70
44121;DHT22;29783;52.504;13.478;2023-03-15T08:07:52;3.70;77.60
44121;DHT22;29783;52.504;13.478;2023-03-15T08:13:20;3.80;75.60
44121;DHT22;29783;52.504;13.478;2023-03-15T08:19:14;3.90;75.20
44121;DHT22;29783;52.504;13.478;2023-03-15T08:22:04;3.80;74.80
44121;DHT22;29783;52.504;13.478;2023-03-15T08:24:37;3.80;75.50
44121;DHT22;29783;52.504;13.478;2023-03-15T08:27:03;3.90;75.70
44121;DHT22;29783;52.504;13.478;2023-03-15T08:29:30;3.80;75.80
44121;DHT22;29783;52.504;13.478;2023-03-15T08:31:56;3.80;75.50
44121;DHT22;29783;52.504;13.478;2023-03-15T08:34:22;3.90;74.50
44121;DHT22;29783;52.504;13.478;2023-03-15T08:36:48;3.90;75.00
44121;DHT22;29783;52.504;13.478;2023-03-15T08:39:14;3.90;75.20
44121;DHT22;29783;52.504;13.478;2023-03-15T08:41:40;3.80;75.50
44121;DHT22;29783;52.504;13.478;2023-03-15T08:44:13;3.80;75.40
44121;DHT22;29783;52.504;13.478;2023-03-15T08:46:39;3.90;75.60
44121;DHT22;29783;52.504;13.478;2023-03-15T08:49:05;4.00;74.80
44121;DHT22;29783;52.504;13.478;2023-03-15T08:51:45;3.90;74.80
44121;DHT22;29783;52.504;13.478;2023-03-15T08:54:14;3.90;75.10
44121;DHT22;29783;52.504;13.478;2023-03-15T08:56:41;3.80;75.40
44121;DHT22;29783;52.504;13.478;2023-03-15T08:59:07;3.80;75.40
44121;DHT22;29783;52.504;13.478;2023-03-15T09:01:39;3.80;75.20
44121;DHT22;29783;52.504;13.478;2023-03-15T09:04:05;3.80;75.90
44121;DHT22;29783;52.504;13.478;2023-03-15T09:06:31;3.80;74.40
44121;DHT22;29783;52.504;13.478;2023-03-15T09:08:56;4.00;74.40
44121;DHT22;29783;52.504;13.478;2023-03-15T09:11:41;4.00;75.30
44121;DHT22;29783;52.504;13.478;2023-03-15T09:14:06;3.90;75.80
44121;DHT22;29783;52.504;13.478;2023-03-15T09:16:32;3.90;76.00
44121;DHT22;29783;52.504;13.478;2023-03-15T09:18:58;4.20;75.70
44121;DHT22;29783;52.504;13.478;2023-03-15T09:21:23;4.40;75.20
44121;DHT22;29783;52.504;13.478;2023-03-15T09:23:49;4.70;73.40
44121;DHT22;29783;52.504;13.478;2023-03-15T09:26:15;5.10;71.70
44121;DHT22;29783;52.504;13.478;2023-03-15T09:28:41;5.40;70.80
44121;DHT22;29783;52.504;13.478;2023-03-15T09:31:06;5.30;69.70
44121;DHT22;29783;52.504;13.478;2023-03-15T09:33:32;5.20;69.40
44121;DHT22;29783;52.504;13.478;2023-03-15T09:35:58;5.10;69.80
44121;DHT22;29783;52.504;13.478;2023-03-15T09:38:24;4.90;71.00
44121;DHT22;29783;52.504;13.478;2023-03-15T09:40:56;4.90;70.60
44121;DHT22;29783;52.504;13.478;2023-03-15T09:46:41;4.60;70.30
44121;DHT22;29783;52.504;13.478;2023-03-15T09:49:09;4.40;71.20
44121;DHT22;29783;52.504;13.478;2023-03-15T09:51:52;4.50;71.10
44121;DHT22;29783;52.504;13.478;2023-03-15T09:54:26;4.40;70.60
44121;DHT22;29783;52.504;13.478;2023-03-15T09:56:59;4.60;70.60
44121;DHT22;29783;52.504;13.478;2023-03-15T09:59:35;4.80;70.50
44121;DHT22;29783;52.504;13.478;2023-03-15T10:04:45;5.30;67.90
44121;DHT22;29783;52.504;13.478;2023-03-15T10:07:13;5.20;67.80
44121;DHT22;29783;52.504;13.478;2023-03-15T10:09:41;5.40;66.70
44121;DHT22;29783;52.504;13.478;2023-03-15T10:15:04;5.50;65.20
44121;DHT22;29783;52.504;13.478;2023-03-15T10:20:51;5.80;64.50
44121;DHT22;29783;52.504;13.478;2023-03-15T10:23:32;6.00;63.90
44121;DHT22;29783;52.504;13.478;2023-03-15T10:26:03;5.90;64.00
44121;DHT22;29783;52.504;13.478;2023-03-15T10:28:30;5.90;63.90
44121;DHT22;29783;52.504;13.478;2023-03-15T10:31:01;5.80;64.60
44121;DHT22;29783;52.504;13.478;2023-03-15T10:33:35;5.50;66.40
44121;DHT22;29783;52.504;13.478;2023-03-15T10:36:08;5.80;65.50
44121;DHT22;29783;52.504;13.478;2023-03-15T10:38:36;5.90;65.90
44121;DHT22;29783;52.504;13.478;2023-03-15T10:44:32;5.80;64.40
44121;DHT22;29783;52.504;13.478;2023-03-15T10:50:55;6.00;61.70
44121;DHT22;29783;52.504;13.478;2023-03-15T10:53:21;6.30;61.40
44121;DHT22;29783;52.504;13.478;2023-03-15T10:56:04;6.40;62.10
44121;DHT22;29783;52.504;13.478;2023-03-15T10:58:45;6.40;60.80
44121;DHT22;29783;52.504;13.478;2023-03-15T11:01:32;6.10;62.20
44121;DHT22;29783;52.504;13.478;2023-03-15T11:07:03;5.90;62.80
44121;DHT22;29783;52.504;13.478;2023-03-15T11:09:42;5.70;64.00
44121;DHT22;29783;52.504;13.478;2023-03-15T11:19:16;5.40;64.90
44121;DHT22;29783;52.504;13.478;2023-03-15T11:25:28;5.40;65.60
44121;DHT22;29783;52.504;13.478;2023-03-15T11:28:21;5.40;64.70
44121;DHT22;29783;52.504;13.478;2023-03-15T11:31:04;5.40;63.40
44121;DHT22;29783;52.504;13.478;2023-03-15T11:36:56;5.80;63.60
44121;DHT22;29783;52.504;13.478;2023-03-15T11:40:14;6.20;62.00
44121;DHT22;29783;52.504;13.478;2023-03-15T11:42:19;6.60;61.20
44121;DHT22;29783;52.504;13.478;2023-03-15T11:44:57;7.00;59.30
44121;DHT22;29783;52.504;13.478;2023-03-15T11:50:56;7.10;58.20
44121;DHT22;29783;52.504;13.478;2023-03-15T11:53:46;6.90;58.30
44121;DHT22;29783;52.504;13.478;2023-03-15T11:56:22;7.10;56.70
44121;DHT22;29783;52.504;13.478;2023-03-15T11:59:07;7.00;56.70
44121;DHT22;29783;52.504;13.478;2023-03-15T12:01:36;7.30;57.10
44121;DHT22;29783;52.504;13.478;2023-03-15T12:07:05;7.80;56.10
44121;DHT22;29783;52.504;13.478;2023-03-15T12:09:44;7.80;56.00
44121;DHT22;29783;52.504;13.478;2023-03-15T12:17:45;6.80;58.60
44121;DHT22;29783;52.504;13.478;2023-03-15T12:23:00;6.80;57.60
44121;DHT22;29783;52.504;13.478;2023-03-15T12:25:54;6.80;55.40
44121;DHT22;29783;52.504;13.478;2023-03-15T12:28:26;6.70;55.50
44121;DHT22;29783;52.504;13.478;2023-03-15T12:30:59;6.70;56.40
44121;DHT22;29783;52.504;13.478;2023-03-15T12:33:51;7.00;55.60
44121;DHT22;29783;52.504;13.478;2023-03-15T12:36:38;7.30;55.30
44121;DHT22;29783;52.504;13.478;2023-03-15T12:41:45;7.80;53.50
44121;DHT22;29783;52.504;13.478;2023-03-15T12:47:00;10.10;47.20
44121;DHT22;29783;52.504;13.478;2023-03-15T12:52:12;10.20;47.30
44121;DHT22;29783;52.504;13.478;2023-03-15T12:58:15;8.20;50.20
44121;DHT22;29783;52.504;13.478;2023-03-15T13:00:49;8.80;48.40
44121;DHT22;29783;52.504;13.478;2023-03-15T13:03:20;9.70;46.20
44121;DHT22;29783;52.504;13.478;2023-03-15T13:08:45;10.90;43.10
44121;DHT22;29783;52.504;13.478;2023-03-15T13:16:50;14.10;34.60
44121;DHT22;29783;52.504;13.478;2023-03-15T13:19:29;14.50;33.20
44121;DHT22;29783;52.504;13.478;2023-03-15T13:38:44;17.00;26.00
44121;DHT22;29783;52.504;13.478;2023-03-15T13:41:24;15.90;27.60
44121;DHT22;29783;52.504;13.478;2023-03-15T13:43:52;13.70;31.00
44121;DHT22;29783;52.504;13.478;2023-03-15T13:46:21;14.10;31.10
44121;DHT22;29783;52.504;13.478;2023-03-15T13:48:48;15.00;29.70
44121;DHT22;29783;52.504;13.478;2023-03-15T13:53:39;12.40;33.20
44121;DHT22;29783;52.504;13.478;2023-03-15T13:56:28;10.10;37.30
44121;DHT22;29783;52.504;13.478;2023-03-15T14:00:17;9.20;40.30
44121;DHT22;29783;52.504;13.478;2023-03-15T14:02:47;7.30;57.10
44121;DHT22;29783;52.504;13.478;2023-03-15T14:05:30;6.30;65.60
44121;DHT22;29783;52.504;13.478;2023-03-15T14:08:00;6.40;67.70
44121;DHT22;29783;52.504;13.478;2023-03-15T14:10:32;7.30;65.20
44121;DHT22;29783;52.504;13.478;2023-03-15T14:13:24;7.90;62.50
44121;DHT22;29783;52.504;13.478;2023-03-15T14:15:58;8.90;60.30
44121;DHT22;29783;52.504;13.478;2023-03-15T14:18:31;11.50;51.70
44121;DHT22;29783;52.504;13.478;2023-03-15T14:20:58;12.70;47.90
44121;DHT22;29783;52.504;13.478;2023-03-15T14:26:33;14.80;41.80
44121;DHT22;29783;52.504;13.478;2023-03-15T14:29:19;14.90;41.80
44121;DHT22;29783;52.504;13.478;2023-03-15T14:31:48;15.80;39.20
44121;DHT22;29783;52.504;13.478;2023-03-15T14:34:24;16.50;35.80
44121;DHT22;29783;52.504;13.478;2023-03-15T14:36:58;15.60;34.70
44121;DHT22;29783;52.504;13.478;2023-03-15T14:39:35;14.80;35.10
44121;DHT22;29783;52.504;13.478;2023-03-15T14:42:11;14.90;33.80
44121;DHT22;29783;52.504;13.478;2023-03-15T14:51:18;15.30;31.80
44121;DHT22;29783;52.504;13.478;2023-03-15T14:53:45;16.70;30.20
44121;DHT22;29783;52.504;13.478;2023-03-15T14:56:12;16.70;30.10
44121;DHT22;29783;52.504;13.478;2023-03-15T14:58:39;15.20;31.20
44121;DHT22;29783;52.504;13.478;2023-03-15T15:01:05;15.40;31.00
44121;DHT22;29783;52.504;13.478;2023-03-15T15:03:42;14.90;30.80
44121;DHT22;29783;52.504;13.478;2023-03-15T15:06:12;15.90;29.80
44121;DHT22;29783;52.504;13.478;2023-03-15T15:08:41;15.80;28.30
44121;DHT22;29783;52.504;13.478;2023-03-15T15:11:08;16.30;29.40
44121;DHT22;29783;52.504;13.478;2023-03-15T15:13:34;16.60;28.40
44121;DHT22;29783;52.504;13.478;2023-03-15T15:16:00;15.30;29.80
44121;DHT22;29783;52.504;13.478;2023-03-15T15:18:28;14.20;31.20
44121;DHT22;29783;52.504;13.478;2023-03-15T15:20:55;12.30;34.30
44121;DHT22;29783;52.504;13.478;2023-03-15T15:23:35;11.40;36.20
44121;DHT22;29783;52.504;13.478;2023-03-15T15:26:03;11.10;36.30
44121;DHT22;29783;52.504;13.478;2023-03-15T15:28:30;10.00;37.90
44121;DHT22;29783;52.504;13.478;2023-03-15T15:34:19;11.20;36.40
44121;DHT22;29783;52.504;13.478;2023-03-15T15:36:45;12.40;35.00
44121;DHT22;29783;52.504;13.478;2023-03-15T15:39:22;12.80;33.50
44121;DHT22;29783;52.504;13.478;2023-03-15T15:42:04;11.90;35.20
44121;DHT22;29783;52.504;13.478;2023-03-15T15:44:30;11.10;36.20
44121;DHT22;29783;52.504;13.478;2023-03-15T15:46:56;10.30;38.10
44121;DHT22;29783;52.504;13.478;2023-03-15T15:49:22;9.30;40.00
44121;DHT22;29783;52.504;13.478;2023-03-15T15:51:49;8.50;41.70
44121;DHT22;29783;52.504;13.478;2023-03-15T15:54:28;8.00;43.40
44121;DHT22;29783;52.504;13.478;2023-03-15T15:57:00;7.70;44.40
44121;DHT22;29783;52.504;13.478;2023-03-15T15:59:25;7.40;45.50
44121;DHT22;29783;52.504;13.478;2023-03-15T16:01:52;7.20;46.10
44121;DHT22;29783;52.504;13.478;2023-03-15T16:04:19;7.20;46.90
44121;DHT22;29783;52.504;13.478;2023-03-15T16:06:53;7.20;47.20
44121;DHT22;29783;52.504;13.478;2023-03-15T16:09:19;7.10;47.70
44121;DHT22;29783;52.504;13.478;2023-03-15T16:11:46;7.00;48.10
44121;DHT22;29783;52.504;13.478;2023-03-15T16:14:16;6.90;48.10
44121;DHT22;29783;52.504;13.478;2023-03-15T16:16:42;6.80;48.60
44121;DHT22;29783;52.504;13.478;2023-03-15T16:19:08;6.80;48.40
44121;DHT22;29783;52.504;13.478;2023-03-15T16:21:42;6.70;52.20
44121;DHT22;29783;52.504;13.478;2023-03-15T16:24:21;5.90;66.70
44121;DHT22;29783;52.504;13.478;2023-03-15T16:26:48;5.30;73.40
44121;DHT22;29783;52.504;13.478;2023-03-15T16:29:20;4.60;78.10
44121;DHT22;29783;52.504;13.478;2023-03-15T16:31:47;4.30;80.50
44121;DHT22;29783;52.504;13.478;2023-03-15T16:34:15;3.80;82.00
44121;DHT22;29783;52.504;13.478;2023-03-15T16:39:49;3.80;82.00
44121;DHT22;29783;52.504;13.478;2023-03-15T16:42:16;3.80;82.00
44121;DHT22;29783;52.504;13.478;2023-03-15T16:44:42;3.80;80.70
44121;DHT22;29783;52.504;13.478;2023-03-15T16:47:08;3.70;82.20
44121;DHT22;29783;52.504;13.478;2023-03-15T16:49:34;3.50;82.30
44121;DHT22;29783;52.504;13.478;2023-03-15T16:52:01;3.50;81.70
44121;DHT22;29783;52.504;13.478;2023-03-15T16:54:28;3.30;81.80
44121;DHT22;29783;52.504;13.478;2023-03-15T17:00:22;3.20;82.00
44121;DHT22;29783;52.504;13.478;2023-03-15T17:02:50;3.10;82.40
44121;DHT22;29783;52.504;13.478;2023-03-15T17:05:18;3.10;82.60
44121;DHT22;29783;52.504;13.478;2023-03-15T17:18:15;3.10;81.20
44121;DHT22;29783;52.504;13.478;2023-03-15T17:20:41;3.20;80.90
44121;DHT22;29783;52.504;13.478;2023-03-15T17:23:07;3.20;81.00
44121;DHT22;29783;52.504;13.478;2023-03-15T17:25:39;3.10;81.10
44121;DHT22;29783;52.504;13.478;2023-03-15T17:28:06;3.20;81.10
44121;DHT22;29783;52.504;13.478;2023-03-15T17:30:34;3.20;81.20
44121;DHT22;29783;52.504;13.478;2023-03-15T17:33:00;3.30;81.00
44121;DHT22;29783;52.504;13.478;2023-03-15T17:35:36;3.20;81.00
44121;DHT22;29783;52.504;13.478;2023-03-15T17:38:05;3.00;81.90
44121;DHT22;29783;52.504;13.478;2023-03-15T17:40:33;3.00;82.70
44121;DHT22;29783;52.504;13.478;2023-03-15T17:43:01;3.00;82.70
44121;DHT22;29783;52.504;13.478;2023-03-15T17:45:30;2.90;82.80
44121;DHT22;29783;52.504;13.478;2023-03-15T17:47:56;3.00;82.70
44121;DHT22;29783;52.504;13.478;2023-03-15T17:50:26;3.10;82.50
44121;DHT22;29783;52.504;13.478;2023-03-15T17:53:01;3.10;82.60
44121;DHT22;29783;52.504;13.478;2023-03-15T17:55:29;3.10;82.50
44121;DHT22;29783;52.504;13.478;2023-03-15T17:57:55;3.20;81.70
44121;DHT22;29783;52.504;13.478;2023-03-15T18:00:22;3.20;82.20
44121;DHT22;29783;52.504;13.478;2023-03-15T18:12:44;3.10;81.50